Aeroporto :
LOGIN :

Iscrizione | Disclaimer

   EN    FR    IT 

 










Sommario :    VFR   VFR Marginale   IFR   IFR Intensivo   IFR Molto Intensivo
Visibilità : 
Base nubi : 
>= 8 km
>= 3000ft
5 / 8 km
1000 / 3000 ft
1500m / 5 km
500 / 1000 ft
800 / 1500m
200 / 500 ft
< 800m
< 200 ft
Simboli :   Temporali  Nebbia  Neve Forte  Precipitazioni Forti  Vento > 20 kt
SIGMETs :   Varie  Temporali  Ghiacco  Turbolenza  Onda orograficha  Ceneri Vulcaniche






- Altitudine del aeroporto : 243 ft
- Codice IATA : HOV


ENOV - Ørsta-Volda , Hovden

ULTIMO METAR :
  • 101450Z VRB06KT CAVOK 23/12 Q1022 RMK WIND 2175FT 16003KT

METARs OBSOLETI :
  • 101420Z VRB03KT CAVOK 22/13 Q1022 RMK WIND 2175FT 13004KT
  • 101320Z 22004KT 170V270 CAVOK 22/12 Q1022 RMK WIND 2175FT 17004KT
  • 101250Z VRB02KT CAVOK 22/12 Q1022 RMK WIND 2175FT 16004KT
  • 101220Z 23005KT CAVOK 21/13 Q1023 RMK WIND 2175FT 14004KT

TAF N/A



MetMap, La meteo Aeronautica in un colpo d'occhio ! - Copyright ORBIFLY Dicembre 2007 - Disclaimer

ORBIFLY MET'MAP TEAM :

Programmazione e sviluppo : Alexandra Zaïnal
Concezione : Baudouin d'Aumeries
Aiuto per la programmazione : Marc-Olivier Méhu
Supporto tecnico e logistico : Manuel Goepfert
Aiuto per la traduzione : Arnaldo La Scala

Contatto : metmap@orbifly.com




FONTI E CREDITI :

   NOAA